sensor_id;sensor_type;location;lat;lon;timestamp;temperature;humidity
7445;DHT22;3764;48.126;11.594;2023-06-22T00:01:24;23.00;99.90
7445;DHT22;3764;48.126;11.594;2023-06-22T00:03:51;22.90;99.90
7445;DHT22;3764;48.126;11.594;2023-06-22T00:06:18;22.90;99.90
7445;DHT22;3764;48.126;11.594;2023-06-22T00:08:45;22.90;99.90
7445;DHT22;3764;48.126;11.594;2023-06-22T00:11:12;22.80;99.90
7445;DHT22;3764;48.126;11.594;2023-06-22T00:13:39;22.80;99.90
7445;DHT22;3764;48.126;11.594;2023-06-22T00:16:08;22.80;99.90
7445;DHT22;3764;48.126;11.594;2023-06-22T00:18:35;22.80;99.90
7445;DHT22;3764;48.126;11.594;2023-06-22T00:21:02;22.80;99.90
7445;DHT22;3764;48.126;11.594;2023-06-22T00:23:29;22.80;99.90
7445;DHT22;3764;48.126;11.594;2023-06-22T00:26:00;22.80;99.90
7445;DHT22;3764;48.126;11.594;2023-06-22T00:28:27;22.80;99.90
7445;DHT22;3764;48.126;11.594;2023-06-22T00:30:54;22.80;99.90
7445;DHT22;3764;48.126;11.594;2023-06-22T00:33:23;22.70;99.90
7445;DHT22;3764;48.126;11.594;2023-06-22T00:35:50;22.70;99.90
7445;DHT22;3764;48.126;11.594;2023-06-22T00:38:18;22.70;99.90
7445;DHT22;3764;48.126;11.594;2023-06-22T00:40:45;22.60;99.90
7445;DHT22;3764;48.126;11.594;2023-06-22T00:43:12;22.60;99.90
7445;DHT22;3764;48.126;11.594;2023-06-22T00:45:39;22.60;99.90
7445;DHT22;3764;48.126;11.594;2023-06-22T00:48:07;22.60;99.90
7445;DHT22;3764;48.126;11.594;2023-06-22T00:50:36;22.50;99.90
7445;DHT22;3764;48.126;11.594;2023-06-22T00:53:05;22.50;99.90
7445;DHT22;3764;48.126;11.594;2023-06-22T00:55:34;22.50;99.90
7445;DHT22;3764;48.126;11.594;2023-06-22T00:58:05;22.40;99.90
7445;DHT22;3764;48.126;11.594;2023-06-22T01:00:36;22.40;99.90
7445;DHT22;3764;48.126;11.594;2023-06-22T01:03:03;22.40;99.90
7445;DHT22;3764;48.126;11.594;2023-06-22T01:05:36;22.40;99.90
7445;DHT22;3764;48.126;11.594;2023-06-22T01:08:12;22.30;99.90
7445;DHT22;3764;48.126;11.594;2023-06-22T01:10:46;22.30;99.90
7445;DHT22;3764;48.126;11.594;2023-06-22T01:13:22;22.30;99.90
7445;DHT22;3764;48.126;11.594;2023-06-22T01:15:53;22.30;99.90
7445;DHT22;3764;48.126;11.594;2023-06-22T01:18:22;22.30;99.90
7445;DHT22;3764;48.126;11.594;2023-06-22T01:20:54;22.30;99.90
7445;DHT22;3764;48.126;11.594;2023-06-22T01:23:37;22.20;99.90
7445;DHT22;3764;48.126;11.594;2023-06-22T01:26:17;22.30;99.90
7445;DHT22;3764;48.126;11.594;2023-06-22T01:28:47;22.30;99.90
7445;DHT22;3764;48.126;11.594;2023-06-22T01:31:17;22.30;99.90
7445;DHT22;3764;48.126;11.594;2023-06-22T01:33:48;22.20;99.90
7445;DHT22;3764;48.126;11.594;2023-06-22T01:36:16;22.20;99.90
7445;DHT22;3764;48.126;11.594;2023-06-22T01:38:44;22.20;99.90
7445;DHT22;3764;48.126;11.594;2023-06-22T01:41:12;22.20;99.90
7445;DHT22;3764;48.126;11.594;2023-06-22T01:43:40;22.10;99.90
7445;DHT22;3764;48.126;11.594;2023-06-22T01:46:10;22.10;99.90
7445;DHT22;3764;48.126;11.594;2023-06-22T01:48:38;22.10;99.90
7445;DHT22;3764;48.126;11.594;2023-06-22T01:51:06;22.10;99.90
7445;DHT22;3764;48.126;11.594;2023-06-22T01:53:33;22.00;99.90
7445;DHT22;3764;48.126;11.594;2023-06-22T01:56:00;22.00;99.90
7445;DHT22;3764;48.126;11.594;2023-06-22T01:58:28;22.00;99.90
7445;DHT22;3764;48.126;11.594;2023-06-22T02:00:58;22.00;99.90
7445;DHT22;3764;48.126;11.594;2023-06-22T02:03:35;22.00;99.90
7445;DHT22;3764;48.126;11.594;2023-06-22T02:06:06;22.00;99.90
7445;DHT22;3764;48.126;11.594;2023-06-22T02:08:40;21.90;99.90
7445;DHT22;3764;48.126;11.594;2023-06-22T02:11:09;21.90;99.90
7445;DHT22;3764;48.126;11.594;2023-06-22T02:13:37;21.90;99.90
7445;DHT22;3764;48.126;11.594;2023-06-22T02:16:09;21.90;99.90
7445;DHT22;3764;48.126;11.594;2023-06-22T02:18:38;21.90;99.90
7445;DHT22;3764;48.126;11.594;2023-06-22T02:21:06;21.90;99.90
7445;DHT22;3764;48.126;11.594;2023-06-22T02:23:34;21.90;99.90
7445;DHT22;3764;48.126;11.594;2023-06-22T02:26:02;21.90;99.90
7445;DHT22;3764;48.126;11.594;2023-06-22T02:28:29;21.90;99.90
7445;DHT22;3764;48.126;11.594;2023-06-22T02:30:56;21.80;99.90
7445;DHT22;3764;48.126;11.594;2023-06-22T02:33:23;21.80;99.90
7445;DHT22;3764;48.126;11.594;2023-06-22T02:35:51;21.80;99.90
7445;DHT22;3764;48.126;11.594;2023-06-22T02:38:18;21.80;99.90
7445;DHT22;3764;48.126;11.594;2023-06-22T02:40:46;21.80;99.90
7445;DHT22;3764;48.126;11.594;2023-06-22T02:43:13;21.70;99.90
7445;DHT22;3764;48.126;11.594;2023-06-22T02:45:40;21.70;99.90
7445;DHT22;3764;48.126;11.594;2023-06-22T02:48:07;21.70;99.90
7445;DHT22;3764;48.126;11.594;2023-06-22T02:50:34;21.70;99.90
7445;DHT22;3764;48.126;11.594;2023-06-22T02:53:03;21.70;99.90
7445;DHT22;3764;48.126;11.594;2023-06-22T02:55:31;21.60;99.90
7445;DHT22;3764;48.126;11.594;2023-06-22T02:57:58;21.60;99.90
7445;DHT22;3764;48.126;11.594;2023-06-22T03:00:25;21.60;99.90
7445;DHT22;3764;48.126;11.594;2023-06-22T03:02:56;21.60;99.90
7445;DHT22;3764;48.126;11.594;2023-06-22T03:05:24;21.60;99.90
7445;DHT22;3764;48.126;11.594;2023-06-22T03:07:51;21.60;99.90
7445;DHT22;3764;48.126;11.594;2023-06-22T03:10:20;21.60;99.90
7445;DHT22;3764;48.126;11.594;2023-06-22T03:12:47;21.50;99.90
7445;DHT22;3764;48.126;11.594;2023-06-22T03:15:14;21.60;99.90
7445;DHT22;3764;48.126;11.594;2023-06-22T03:17:43;21.50;99.90
7445;DHT22;3764;48.126;11.594;2023-06-22T03:20:10;21.50;99.90
7445;DHT22;3764;48.126;11.594;2023-06-22T03:22:38;21.50;99.90
7445;DHT22;3764;48.126;11.594;2023-06-22T03:25:06;21.50;99.90
7445;DHT22;3764;48.126;11.594;2023-06-22T03:27:40;21.50;99.90
7445;DHT22;3764;48.126;11.594;2023-06-22T03:30:09;21.50;99.90
7445;DHT22;3764;48.126;11.594;2023-06-22T03:32:37;21.40;99.90
7445;DHT22;3764;48.126;11.594;2023-06-22T03:35:04;21.50;99.90
7445;DHT22;3764;48.126;11.594;2023-06-22T03:37:32;21.40;99.90
7445;DHT22;3764;48.126;11.594;2023-06-22T03:39:59;21.40;99.90
7445;DHT22;3764;48.126;11.594;2023-06-22T03:42:26;21.40;99.90
7445;DHT22;3764;48.126;11.594;2023-06-22T03:44:54;21.40;99.90
7445;DHT22;3764;48.126;11.594;2023-06-22T03:47:22;21.40;99.90
7445;DHT22;3764;48.126;11.594;2023-06-22T03:49:49;21.40;99.90
7445;DHT22;3764;48.126;11.594;2023-06-22T03:52:20;21.40;99.90
7445;DHT22;3764;48.126;11.594;2023-06-22T03:54:47;21.40;99.90
7445;DHT22;3764;48.126;11.594;2023-06-22T03:57:14;21.40;99.90
7445;DHT22;3764;48.126;11.594;2023-06-22T03:59:41;21.40;99.90
7445;DHT22;3764;48.126;11.594;2023-06-22T04:02:10;21.40;99.90
7445;DHT22;3764;48.126;11.594;2023-06-22T04:04:39;21.30;99.90
7445;DHT22;3764;48.126;11.594;2023-06-22T04:07:06;21.40;99.90
7445;DHT22;3764;48.126;11.594;2023-06-22T04:09:34;21.40;99.90
7445;DHT22;3764;48.126;11.594;2023-06-22T04:12:01;21.30;99.90
7445;DHT22;3764;48.126;11.594;2023-06-22T04:14:28;21.30;99.90
7445;DHT22;3764;48.126;11.594;2023-06-22T04:16:55;21.30;99.90
7445;DHT22;3764;48.126;11.594;2023-06-22T04:19:24;21.30;99.90
7445;DHT22;3764;48.126;11.594;2023-06-22T04:21:51;21.30;99.90
7445;DHT22;3764;48.126;11.594;2023-06-22T04:24:18;21.30;99.90
7445;DHT22;3764;48.126;11.594;2023-06-22T04:26:45;21.30;99.90
7445;DHT22;3764;48.126;11.594;2023-06-22T04:29:13;21.30;99.90
7445;DHT22;3764;48.126;11.594;2023-06-22T04:31:40;21.30;99.90
7445;DHT22;3764;48.126;11.594;2023-06-22T04:34:07;21.30;99.90
7445;DHT22;3764;48.126;11.594;2023-06-22T04:36:37;21.30;99.90
7445;DHT22;3764;48.126;11.594;2023-06-22T04:39:05;21.30;99.90
7445;DHT22;3764;48.126;11.594;2023-06-22T04:41:35;21.30;99.90
7445;DHT22;3764;48.126;11.594;2023-06-22T04:44:09;21.30;99.90
7445;DHT22;3764;48.126;11.594;2023-06-22T04:46:37;21.30;99.90
7445;DHT22;3764;48.126;11.594;2023-06-22T04:49:05;21.30;99.90
7445;DHT22;3764;48.126;11.594;2023-06-22T04:51:41;21.30;99.90
7445;DHT22;3764;48.126;11.594;2023-06-22T04:54:09;21.30;99.90
7445;DHT22;3764;48.126;11.594;2023-06-22T04:56:37;21.30;99.90
7445;DHT22;3764;48.126;11.594;2023-06-22T04:59:07;21.30;99.90
7445;DHT22;3764;48.126;11.594;2023-06-22T05:01:38;21.30;99.90
7445;DHT22;3764;48.126;11.594;2023-06-22T05:04:05;21.20;99.90
7445;DHT22;3764;48.126;11.594;2023-06-22T05:06:33;21.20;99.90
7445;DHT22;3764;48.126;11.594;2023-06-22T05:09:01;21.30;99.90
7445;DHT22;3764;48.126;11.594;2023-06-22T05:11:30;21.30;99.90
7445;DHT22;3764;48.126;11.594;2023-06-22T05:13:57;21.20;99.90
7445;DHT22;3764;48.126;11.594;2023-06-22T05:16:25;21.20;99.90
7445;DHT22;3764;48.126;11.594;2023-06-22T05:18:52;21.20;99.90
7445;DHT22;3764;48.126;11.594;2023-06-22T05:21:25;21.20;99.90
7445;DHT22;3764;48.126;11.594;2023-06-22T05:23:53;21.20;99.90
7445;DHT22;3764;48.126;11.594;2023-06-22T05:26:24;21.20;99.90
7445;DHT22;3764;48.126;11.594;2023-06-22T05:28:51;21.30;99.90
7445;DHT22;3764;48.126;11.594;2023-06-22T05:31:19;21.30;99.90
7445;DHT22;3764;48.126;11.594;2023-06-22T05:33:47;21.30;99.90
7445;DHT22;3764;48.126;11.594;2023-06-22T05:36:15;21.40;99.90
7445;DHT22;3764;48.126;11.594;2023-06-22T05:38:42;21.40;99.90
7445;DHT22;3764;48.126;11.594;2023-06-22T05:41:09;21.40;99.90
7445;DHT22;3764;48.126;11.594;2023-06-22T05:43:37;21.50;99.90
7445;DHT22;3764;48.126;11.594;2023-06-22T05:46:05;21.40;99.90
7445;DHT22;3764;48.126;11.594;2023-06-22T05:48:32;21.50;99.90
7445;DHT22;3764;48.126;11.594;2023-06-22T05:50:59;21.50;99.90
7445;DHT22;3764;48.126;11.594;2023-06-22T05:53:26;21.50;99.90
7445;DHT22;3764;48.126;11.594;2023-06-22T05:55:53;21.50;99.90
7445;DHT22;3764;48.126;11.594;2023-06-22T05:58:20;21.60;99.90
7445;DHT22;3764;48.126;11.594;2023-06-22T06:00:49;21.60;99.90
7445;DHT22;3764;48.126;11.594;2023-06-22T06:03:16;21.60;99.90
7445;DHT22;3764;48.126;11.594;2023-06-22T06:05:44;21.60;99.90
7445;DHT22;3764;48.126;11.594;2023-06-22T06:08:11;21.60;99.90
7445;DHT22;3764;48.126;11.594;2023-06-22T06:10:38;21.60;99.90
7445;DHT22;3764;48.126;11.594;2023-06-22T06:13:06;21.70;99.90
7445;DHT22;3764;48.126;11.594;2023-06-22T06:15:34;21.70;99.90
7445;DHT22;3764;48.126;11.594;2023-06-22T06:18:03;21.70;99.90
7445;DHT22;3764;48.126;11.594;2023-06-22T06:20:31;21.80;99.90
7445;DHT22;3764;48.126;11.594;2023-06-22T06:22:59;21.80;99.90
7445;DHT22;3764;48.126;11.594;2023-06-22T06:25:26;21.80;99.90
7445;DHT22;3764;48.126;11.594;2023-06-22T06:27:53;21.80;99.90
7445;DHT22;3764;48.126;11.594;2023-06-22T06:30:21;21.90;99.90
7445;DHT22;3764;48.126;11.594;2023-06-22T06:32:49;21.90;99.90
7445;DHT22;3764;48.126;11.594;2023-06-22T06:35:18;22.00;99.90
7445;DHT22;3764;48.126;11.594;2023-06-22T06:37:47;22.00;99.90
7445;DHT22;3764;48.126;11.594;2023-06-22T06:40:15;22.00;99.90
7445;DHT22;3764;48.126;11.594;2023-06-22T06:42:43;22.00;99.90
7445;DHT22;3764;48.126;11.594;2023-06-22T06:45:11;22.10;99.90
7445;DHT22;3764;48.126;11.594;2023-06-22T06:47:39;22.10;99.90
7445;DHT22;3764;48.126;11.594;2023-06-22T06:50:07;22.10;99.90
7445;DHT22;3764;48.126;11.594;2023-06-22T06:52:36;22.20;99.90
7445;DHT22;3764;48.126;11.594;2023-06-22T06:55:04;22.20;99.90
7445;DHT22;3764;48.126;11.594;2023-06-22T06:57:34;22.20;99.90
7445;DHT22;3764;48.126;11.594;2023-06-22T07:00:03;22.30;99.90
7445;DHT22;3764;48.126;11.594;2023-06-22T07:02:38;22.40;99.90
7445;DHT22;3764;48.126;11.594;2023-06-22T07:05:06;22.40;99.90
7445;DHT22;3764;48.126;11.594;2023-06-22T07:07:33;22.40;99.90
7445;DHT22;3764;48.126;11.594;2023-06-22T07:10:02;22.50;99.90
7445;DHT22;3764;48.126;11.594;2023-06-22T07:12:29;22.50;99.90
7445;DHT22;3764;48.126;11.594;2023-06-22T07:15:02;22.60;99.90
7445;DHT22;3764;48.126;11.594;2023-06-22T07:17:29;22.60;99.90
7445;DHT22;3764;48.126;11.594;2023-06-22T07:19:56;22.70;99.90
7445;DHT22;3764;48.126;11.594;2023-06-22T07:22:23;22.70;99.90
7445;DHT22;3764;48.126;11.594;2023-06-22T07:24:50;22.70;99.90
7445;DHT22;3764;48.126;11.594;2023-06-22T07:27:19;22.80;99.90
7445;DHT22;3764;48.126;11.594;2023-06-22T07:29:47;22.80;99.90
7445;DHT22;3764;48.126;11.594;2023-06-22T07:32:14;22.90;99.90
7445;DHT22;3764;48.126;11.594;2023-06-22T07:34:41;22.90;99.90
7445;DHT22;3764;48.126;11.594;2023-06-22T07:37:09;23.00;99.90
7445;DHT22;3764;48.126;11.594;2023-06-22T07:39:36;23.00;99.90
7445;DHT22;3764;48.126;11.594;2023-06-22T07:42:04;23.10;99.90
7445;DHT22;3764;48.126;11.594;2023-06-22T07:44:32;23.10;99.90
7445;DHT22;3764;48.126;11.594;2023-06-22T07:46:59;23.10;99.90
7445;DHT22;3764;48.126;11.594;2023-06-22T07:49:27;23.20;99.90
7445;DHT22;3764;48.126;11.594;2023-06-22T07:51:54;23.20;99.90
7445;DHT22;3764;48.126;11.594;2023-06-22T07:54:22;23.30;99.90
7445;DHT22;3764;48.126;11.594;2023-06-22T07:56:49;23.30;99.90
7445;DHT22;3764;48.126;11.594;2023-06-22T07:59:16;23.40;99.90
7445;DHT22;3764;48.126;11.594;2023-06-22T08:01:44;23.40;99.90
7445;DHT22;3764;48.126;11.594;2023-06-22T08:04:15;23.40;99.90
7445;DHT22;3764;48.126;11.594;2023-06-22T08:06:42;23.50;99.90
7445;DHT22;3764;48.126;11.594;2023-06-22T08:09:10;23.50;99.90
7445;DHT22;3764;48.126;11.594;2023-06-22T08:11:38;23.60;99.90
7445;DHT22;3764;48.126;11.594;2023-06-22T08:14:05;23.70;99.90
7445;DHT22;3764;48.126;11.594;2023-06-22T08:16:32;23.70;99.90
7445;DHT22;3764;48.126;11.594;2023-06-22T08:19:00;23.80;99.90
7445;DHT22;3764;48.126;11.594;2023-06-22T08:21:27;23.80;99.90
7445;DHT22;3764;48.126;11.594;2023-06-22T08:23:54;23.80;99.90
7445;DHT22;3764;48.126;11.594;2023-06-22T08:26:22;23.90;99.90
7445;DHT22;3764;48.126;11.594;2023-06-22T08:28:49;24.00;99.90
7445;DHT22;3764;48.126;11.594;2023-06-22T08:31:16;24.00;99.90
7445;DHT22;3764;48.126;11.594;2023-06-22T08:33:43;24.00;99.90
7445;DHT22;3764;48.126;11.594;2023-06-22T08:36:13;24.10;99.90
7445;DHT22;3764;48.126;11.594;2023-06-22T08:38:40;24.20;99.90
7445;DHT22;3764;48.126;11.594;2023-06-22T08:41:07;24.20;99.90
7445;DHT22;3764;48.126;11.594;2023-06-22T08:43:34;24.30;99.90
7445;DHT22;3764;48.126;11.594;2023-06-22T08:46:01;24.30;99.90
7445;DHT22;3764;48.126;11.594;2023-06-22T08:48:28;24.30;99.90
7445;DHT22;3764;48.126;11.594;2023-06-22T08:50:56;24.40;99.90
7445;DHT22;3764;48.126;11.594;2023-06-22T08:53:26;24.40;99.90
7445;DHT22;3764;48.126;11.594;2023-06-22T08:55:53;24.40;99.90
7445;DHT22;3764;48.126;11.594;2023-06-22T08:58:21;24.50;99.90
7445;DHT22;3764;48.126;11.594;2023-06-22T09:00:50;24.50;99.90
7445;DHT22;3764;48.126;11.594;2023-06-22T09:03:17;24.50;99.90
7445;DHT22;3764;48.126;11.594;2023-06-22T09:05:46;24.60;99.90
7445;DHT22;3764;48.126;11.594;2023-06-22T09:08:13;24.60;99.90
7445;DHT22;3764;48.126;11.594;2023-06-22T09:10:41;24.70;99.90
7445;DHT22;3764;48.126;11.594;2023-06-22T09:13:09;24.70;99.90
7445;DHT22;3764;48.126;11.594;2023-06-22T09:15:36;24.80;99.90
7445;DHT22;3764;48.126;11.594;2023-06-22T09:18:03;24.80;99.90
7445;DHT22;3764;48.126;11.594;2023-06-22T09:20:30;24.90;99.90
7445;DHT22;3764;48.126;11.594;2023-06-22T09:22:57;24.90;99.90
7445;DHT22;3764;48.126;11.594;2023-06-22T09:25:24;25.00;99.90
7445;DHT22;3764;48.126;11.594;2023-06-22T09:27:53;25.00;99.90
7445;DHT22;3764;48.126;11.594;2023-06-22T09:30:21;25.10;99.90
7445;DHT22;3764;48.126;11.594;2023-06-22T09:32:48;25.10;99.90
7445;DHT22;3764;48.126;11.594;2023-06-22T09:35:15;25.20;99.90
7445;DHT22;3764;48.126;11.594;2023-06-22T09:37:42;25.30;99.90
7445;DHT22;3764;48.126;11.594;2023-06-22T09:40:11;25.30;99.90
7445;DHT22;3764;48.126;11.594;2023-06-22T09:42:38;25.30;99.90
7445;DHT22;3764;48.126;11.594;2023-06-22T09:45:08;25.30;99.90
7445;DHT22;3764;48.126;11.594;2023-06-22T09:47:35;25.40;99.90
7445;DHT22;3764;48.126;11.594;2023-06-22T09:50:03;25.40;99.90
7445;DHT22;3764;48.126;11.594;2023-06-22T09:52:30;25.40;99.90
7445;DHT22;3764;48.126;11.594;2023-06-22T09:54:57;25.50;99.90
7445;DHT22;3764;48.126;11.594;2023-06-22T09:57:24;25.50;99.90
7445;DHT22;3764;48.126;11.594;2023-06-22T09:59:51;25.50;99.90
7445;DHT22;3764;48.126;11.594;2023-06-22T10:02:20;25.60;99.90
7445;DHT22;3764;48.126;11.594;2023-06-22T10:04:47;25.60;99.90
7445;DHT22;3764;48.126;11.594;2023-06-22T10:07:14;25.70;99.90
7445;DHT22;3764;48.126;11.594;2023-06-22T10:09:41;25.70;99.90
7445;DHT22;3764;48.126;11.594;2023-06-22T10:12:09;25.80;99.90
7445;DHT22;3764;48.126;11.594;2023-06-22T10:14:36;25.80;99.90
7445;DHT22;3764;48.126;11.594;2023-06-22T10:17:03;25.90;99.90
7445;DHT22;3764;48.126;11.594;2023-06-22T10:19:34;26.00;99.90
7445;DHT22;3764;48.126;11.594;2023-06-22T10:22:03;26.00;99.90
7445;DHT22;3764;48.126;11.594;2023-06-22T10:24:31;26.10;99.90
7445;DHT22;3764;48.126;11.594;2023-06-22T10:26:58;26.20;99.90
7445;DHT22;3764;48.126;11.594;2023-06-22T10:29:25;26.30;99.90
7445;DHT22;3764;48.126;11.594;2023-06-22T10:31:52;26.30;99.90
7445;DHT22;3764;48.126;11.594;2023-06-22T10:34:19;26.40;99.90
7445;DHT22;3764;48.126;11.594;2023-06-22T10:36:47;26.40;99.90
7445;DHT22;3764;48.126;11.594;2023-06-22T10:39:14;26.50;99.90
7445;DHT22;3764;48.126;11.594;2023-06-22T10:41:42;26.60;99.90
7445;DHT22;3764;48.126;11.594;2023-06-22T10:44:09;26.60;99.90
7445;DHT22;3764;48.126;11.594;2023-06-22T10:46:36;26.80;99.90
7445;DHT22;3764;48.126;11.594;2023-06-22T10:49:03;26.90;99.90
7445;DHT22;3764;48.126;11.594;2023-06-22T10:51:30;27.00;99.90
7445;DHT22;3764;48.126;11.594;2023-06-22T10:53:59;27.10;99.90
7445;DHT22;3764;48.126;11.594;2023-06-22T10:56:26;27.20;99.90
7445;DHT22;3764;48.126;11.594;2023-06-22T10:58:53;27.30;99.90
7445;DHT22;3764;48.126;11.594;2023-06-22T11:01:20;27.40;99.90
7445;DHT22;3764;48.126;11.594;2023-06-22T11:03:47;27.50;99.90
7445;DHT22;3764;48.126;11.594;2023-06-22T11:06:14;27.60;99.90
7445;DHT22;3764;48.126;11.594;2023-06-22T11:08:44;27.70;99.90
7445;DHT22;3764;48.126;11.594;2023-06-22T11:11:12;27.70;99.90
7445;DHT22;3764;48.126;11.594;2023-06-22T11:13:39;27.80;99.90
7445;DHT22;3764;48.126;11.594;2023-06-22T11:16:06;27.80;99.90
7445;DHT22;3764;48.126;11.594;2023-06-22T11:18:33;27.80;99.90
7445;DHT22;3764;48.126;11.594;2023-06-22T11:21:00;27.90;99.90
7445;DHT22;3764;48.126;11.594;2023-06-22T11:23:27;27.90;99.90
7445;DHT22;3764;48.126;11.594;2023-06-22T11:25:55;27.90;99.90
7445;DHT22;3764;48.126;11.594;2023-06-22T11:28:23;28.00;99.90
7445;DHT22;3764;48.126;11.594;2023-06-22T11:30:53;28.00;99.90
7445;DHT22;3764;48.126;11.594;2023-06-22T11:33:21;28.00;99.90
7445;DHT22;3764;48.126;11.594;2023-06-22T11:35:48;28.00;99.90
7445;DHT22;3764;48.126;11.594;2023-06-22T11:38:15;28.10;99.90
7445;DHT22;3764;48.126;11.594;2023-06-22T11:40:42;28.10;99.90
7445;DHT22;3764;48.126;11.594;2023-06-22T11:43:09;28.20;99.90
7445;DHT22;3764;48.126;11.594;2023-06-22T11:45:38;28.20;99.90
7445;DHT22;3764;48.126;11.594;2023-06-22T11:48:05;28.30;99.90
7445;DHT22;3764;48.126;11.594;2023-06-22T11:50:32;28.40;99.90
7445;DHT22;3764;48.126;11.594;2023-06-22T11:53:01;28.50;99.90
7445;DHT22;3764;48.126;11.594;2023-06-22T11:55:29;28.60;99.90
7445;DHT22;3764;48.126;11.594;2023-06-22T11:57:57;28.70;99.90
7445;DHT22;3764;48.126;11.594;2023-06-22T12:00:28;28.70;99.90
7445;DHT22;3764;48.126;11.594;2023-06-22T12:02:57;28.80;99.90
7445;DHT22;3764;48.126;11.594;2023-06-22T12:05:24;28.90;99.90
7445;DHT22;3764;48.126;11.594;2023-06-22T12:07:53;29.00;99.90
7445;DHT22;3764;48.126;11.594;2023-06-22T12:10:20;29.10;99.90
7445;DHT22;3764;48.126;11.594;2023-06-22T12:12:47;29.10;99.90
7445;DHT22;3764;48.126;11.594;2023-06-22T12:15:15;29.20;99.90
7445;DHT22;3764;48.126;11.594;2023-06-22T12:17:42;29.20;99.90
7445;DHT22;3764;48.126;11.594;2023-06-22T12:20:11;29.20;99.90
7445;DHT22;3764;48.126;11.594;2023-06-22T12:22:38;29.20;99.90
7445;DHT22;3764;48.126;11.594;2023-06-22T12:25:06;29.30;99.90
7445;DHT22;3764;48.126;11.594;2023-06-22T12:27:33;29.40;99.90
7445;DHT22;3764;48.126;11.594;2023-06-22T12:30:00;29.50;99.90
7445;DHT22;3764;48.126;11.594;2023-06-22T12:32:27;29.60;99.90
7445;DHT22;3764;48.126;11.594;2023-06-22T12:34:55;29.70;99.90
7445;DHT22;3764;48.126;11.594;2023-06-22T12:37:24;29.70;99.90
7445;DHT22;3764;48.126;11.594;2023-06-22T12:39:51;29.80;99.90
7445;DHT22;3764;48.126;11.594;2023-06-22T12:42:18;29.90;99.90
7445;DHT22;3764;48.126;11.594;2023-06-22T12:44:46;29.90;99.90
7445;DHT22;3764;48.126;11.594;2023-06-22T12:47:13;30.00;99.90
7445;DHT22;3764;48.126;11.594;2023-06-22T12:49:40;30.00;99.90
7445;DHT22;3764;48.126;11.594;2023-06-22T12:52:11;30.00;99.90
7445;DHT22;3764;48.126;11.594;2023-06-22T12:54:39;30.00;99.90
7445;DHT22;3764;48.126;11.594;2023-06-22T12:57:06;29.90;99.90
7445;DHT22;3764;48.126;11.594;2023-06-22T12:59:34;29.90;99.90
7445;DHT22;3764;48.126;11.594;2023-06-22T13:02:01;30.00;99.90
7445;DHT22;3764;48.126;11.594;2023-06-22T13:04:28;30.00;99.90
7445;DHT22;3764;48.126;11.594;2023-06-22T13:06:55;30.00;99.90
7445;DHT22;3764;48.126;11.594;2023-06-22T13:09:22;30.00;99.90
7445;DHT22;3764;48.126;11.594;2023-06-22T13:11:50;30.10;99.90
7445;DHT22;3764;48.126;11.594;2023-06-22T13:14:18;30.10;99.90
7445;DHT22;3764;48.126;11.594;2023-06-22T13:16:45;30.20;99.90
7445;DHT22;3764;48.126;11.594;2023-06-22T13:19:12;30.20;99.90
7445;DHT22;3764;48.126;11.594;2023-06-22T13:21:40;30.20;99.90
7445;DHT22;3764;48.126;11.594;2023-06-22T13:24:07;30.30;99.90
7445;DHT22;3764;48.126;11.594;2023-06-22T13:26:34;30.30;99.90
7445;DHT22;3764;48.126;11.594;2023-06-22T13:29:02;30.40;99.90
7445;DHT22;3764;48.126;11.594;2023-06-22T13:31:29;30.40;99.90
7445;DHT22;3764;48.126;11.594;2023-06-22T13:33:57;30.40;99.90
7445;DHT22;3764;48.126;11.594;2023-06-22T13:36:24;30.40;99.90
7445;DHT22;3764;48.126;11.594;2023-06-22T13:38:51;30.40;99.90
7445;DHT22;3764;48.126;11.594;2023-06-22T13:41:18;30.40;99.90
7445;DHT22;3764;48.126;11.594;2023-06-22T13:43:45;30.40;99.90
7445;DHT22;3764;48.126;11.594;2023-06-22T13:46:13;30.50;99.90
7445;DHT22;3764;48.126;11.594;2023-06-22T13:48:40;30.40;99.90
7445;DHT22;3764;48.126;11.594;2023-06-22T13:51:07;30.50;99.90
7445;DHT22;3764;48.126;11.594;2023-06-22T13:53:34;30.40;99.90
7445;DHT22;3764;48.126;11.594;2023-06-22T13:56:02;30.50;99.90
7445;DHT22;3764;48.126;11.594;2023-06-22T13:58:29;30.50;99.90
7445;DHT22;3764;48.126;11.594;2023-06-22T14:00:56;30.50;99.90
7445;DHT22;3764;48.126;11.594;2023-06-22T14:03:24;30.50;99.90
7445;DHT22;3764;48.126;11.594;2023-06-22T14:05:51;30.50;99.90
7445;DHT22;3764;48.126;11.594;2023-06-22T14:08:22;30.50;99.90
7445;DHT22;3764;48.126;11.594;2023-06-22T14:10:50;30.60;99.90
7445;DHT22;3764;48.126;11.594;2023-06-22T14:13:19;30.60;99.90
7445;DHT22;3764;48.126;11.594;2023-06-22T14:15:46;30.70;99.90
7445;DHT22;3764;48.126;11.594;2023-06-22T14:18:14;30.70;99.90
7445;DHT22;3764;48.126;11.594;2023-06-22T14:20:43;30.70;99.90
7445;DHT22;3764;48.126;11.594;2023-06-22T14:23:10;30.70;99.90
7445;DHT22;3764;48.126;11.594;2023-06-22T14:25:37;30.70;99.90
7445;DHT22;3764;48.126;11.594;2023-06-22T14:28:05;30.70;99.90
7445;DHT22;3764;48.126;11.594;2023-06-22T14:30:32;30.70;99.90
7445;DHT22;3764;48.126;11.594;2023-06-22T14:32:59;30.80;99.90
7445;DHT22;3764;48.126;11.594;2023-06-22T14:35:26;30.80;99.90
7445;DHT22;3764;48.126;11.594;2023-06-22T14:37:55;30.80;99.90
7445;DHT22;3764;48.126;11.594;2023-06-22T14:40:22;30.80;99.90
7445;DHT22;3764;48.126;11.594;2023-06-22T14:42:49;30.90;99.90
7445;DHT22;3764;48.126;11.594;2023-06-22T14:45:16;30.90;99.90
7445;DHT22;3764;48.126;11.594;2023-06-22T14:47:43;31.00;99.90
7445;DHT22;3764;48.126;11.594;2023-06-22T14:50:10;31.00;99.90
7445;DHT22;3764;48.126;11.594;2023-06-22T14:52:37;31.00;99.90
7445;DHT22;3764;48.126;11.594;2023-06-22T14:55:06;31.10;99.90
7445;DHT22;3764;48.126;11.594;2023-06-22T14:57:34;31.10;99.90
7445;DHT22;3764;48.126;11.594;2023-06-22T15:00:01;31.10;99.90
7445;DHT22;3764;48.126;11.594;2023-06-22T15:02:28;31.30;99.90
7445;DHT22;3764;48.126;11.594;2023-06-22T15:04:55;31.30;99.90
7445;DHT22;3764;48.126;11.594;2023-06-22T15:07:23;31.40;99.90
7445;DHT22;3764;48.126;11.594;2023-06-22T15:09:50;31.40;99.90
7445;DHT22;3764;48.126;11.594;2023-06-22T15:12:18;31.40;99.90
7445;DHT22;3764;48.126;11.594;2023-06-22T15:14:45;31.40;99.90
7445;DHT22;3764;48.126;11.594;2023-06-22T15:17:12;31.50;99.90
7445;DHT22;3764;48.126;11.594;2023-06-22T15:19:40;31.60;99.90
7445;DHT22;3764;48.126;11.594;2023-06-22T15:22:08;31.60;99.90
7445;DHT22;3764;48.126;11.594;2023-06-22T15:24:35;31.60;99.90
7445;DHT22;3764;48.126;11.594;2023-06-22T15:27:02;31.70;99.90
7445;DHT22;3764;48.126;11.594;2023-06-22T15:29:31;31.80;99.90
7445;DHT22;3764;48.126;11.594;2023-06-22T15:31:59;31.80;99.90
7445;DHT22;3764;48.126;11.594;2023-06-22T15:34:27;31.70;99.90
7445;DHT22;3764;48.126;11.594;2023-06-22T15:36:54;31.60;99.90
7445;DHT22;3764;48.126;11.594;2023-06-22T15:39:21;31.60;99.90
7445;DHT22;3764;48.126;11.594;2023-06-22T15:41:50;31.50;99.90
7445;DHT22;3764;48.126;11.594;2023-06-22T15:44:19;31.60;99.90
7445;DHT22;3764;48.126;11.594;2023-06-22T15:46:48;31.50;99.90
7445;DHT22;3764;48.126;11.594;2023-06-22T15:49:15;31.50;99.90